Time;durP1;ratioP1;P1;durP2;ratioP2;P2;SDS_P1;SDS_P2;PMS_P1;PMS_P2;Temp;Humidity;BMP_temperature;BMP_pressure;BME280_temperature;BME280_humidity;BME280_pressure;Samples;Min_cycle;Max_cycle;Signal;HPM_P1;HPM_P2
2023/01/25 00:01:33;;;;;;;;;58.25;46.75;;;;;7.39;100.00;103033.06;5083773;27;45886;-74
2023/01/25 00:03:58;;;;;;;;;63.50;48.50;;;;;7.41;100.00;103030.31;5102224;27;45261;-74
2023/01/25 00:06:24;;;;;;;;;55.25;45.00;;;;;7.43;100.00;103036.38;5083660;27;45551;-74
2023/01/25 00:08:50;;;;;;;;;62.00;47.00;;;;;7.41;100.00;103027.69;5102347;27;45260;-75
2023/01/25 00:11:16;;;;;;;;;48.75;41.00;;;;;7.38;100.00;103031.38;5101934;27;45284;-74
2023/01/25 00:13:42;;;;;;;;;58.50;45.00;;;;;7.37;100.00;103027.03;5102170;27;45317;-74
2023/01/25 00:16:08;;;;;;;;;60.50;47.50;;;;;7.38;100.00;103026.06;5083310;27;46332;-74
2023/01/25 00:18:33;;;;;;;;;58.00;45.75;;;;;7.35;100.00;103022.75;5102197;27;46332;-74
2023/01/25 00:20:58;;;;;;;;;55.25;44.75;;;;;7.38;100.00;103023.44;5101769;27;45300;-74
2023/01/25 00:23:24;;;;;;;;;55.25;45.00;;;;;7.39;100.00;103019.00;5102068;27;45347;-74
2023/01/25 00:25:56;;;;;;;;;58.25;46.50;;;;;7.47;100.00;103029.06;5101781;27;45432;-75
2023/01/25 00:28:21;;;;;;;;;55.00;44.25;;;;;7.50;100.00;103029.75;5083083;27;47330;-74
2023/01/25 00:30:46;;;;;;;;;58.75;48.50;;;;;7.50;100.00;103028.88;5101754;27;45274;-74
2023/01/25 00:33:15;;;;;;;;;55.00;45.25;;;;;7.50;100.00;103015.66;5102066;27;45165;-76
2023/01/25 00:35:42;;;;;;;;;56.00;44.00;;;;;7.48;100.00;103009.63;5101376;27;45669;-74
2023/01/25 00:38:27;;;;;;;;;56.00;45.25;;;;;7.52;100.00;103019.91;5101715;27;45440;-74
2023/01/25 00:40:53;;;;;;;;;53.25;43.25;;;;;7.50;100.00;103019.16;5101627;27;45297;-74
2023/01/25 00:43:18;;;;;;;;;56.25;44.00;;;;;7.52;100.00;103021.72;5101524;27;45408;-74
2023/01/25 00:45:44;;;;;;;;;60.50;47.25;;;;;7.48;100.00;103015.75;5101347;27;45445;-75
2023/01/25 00:48:09;;;;;;;;;57.75;44.50;;;;;7.51;100.00;103014.72;5101705;27;45932;-74
2023/01/25 00:50:38;;;;;;;;;57.75;47.25;;;;;7.44;100.00;103007.19;5101314;27;45342;-74
2023/01/25 00:53:03;;;;;;;;;61.25;47.50;;;;;7.45;100.00;103016.81;5101925;27;45653;-74
2023/01/25 00:55:29;;;;;;;;;64.25;50.00;;;;;7.45;100.00;103014.16;5101223;27;45339;-74
2023/01/25 00:57:54;;;;;;;;;60.25;45.25;;;;;7.42;100.00;103014.34;5101284;27;45361;-74
2023/01/25 01:00:20;;;;;;;;;56.75;45.50;;;;;7.43;100.00;103009.91;5101525;27;45306;-74
2023/01/25 01:02:45;;;;;;;;;56.75;46.25;;;;;7.46;100.00;103009.72;5101693;27;45298;-75
2023/01/25 01:05:10;;;;;;;;;54.75;45.50;;;;;7.48;100.00;103010.47;5082680;27;47297;-74
2023/01/25 01:07:35;;;;;;;;;61.00;47.50;;;;;7.47;100.00;103011.41;5082695;27;47299;-74
2023/01/25 01:10:01;;;;;;;;;60.25;47.75;;;;;7.49;100.00;103013.97;5100340;27;45323;-75
2023/01/25 01:12:26;;;;;;;;;56.50;45.50;;;;;7.48;100.00;103018.41;5082952;27;45405;-74
2023/01/25 01:14:52;;;;;;;;;59.25;47.50;;;;;7.50;100.00;103020.94;5100974;27;45569;-74
2023/01/25 01:17:17;;;;;;;;;55.00;44.75;;;;;7.40;100.00;102999.53;5101112;27;45363;-74
2023/01/25 01:19:42;;;;;;;;;57.25;44.25;;;;;7.40;100.00;103004.81;5101222;27;45389;-74
2023/01/25 01:22:08;;;;;;;;;50.00;42.75;;;;;7.32;100.00;103007.94;5101222;27;45314;-75
2023/01/25 01:24:33;;;;;;;;;54.25;41.25;;;;;7.27;100.00;103007.41;5100787;27;45337;-74
2023/01/25 01:26:58;;;;;;;;;57.75;44.25;;;;;7.31;100.00;103001.78;5082587;27;46097;-74
2023/01/25 01:29:24;;;;;;;;;60.75;48.75;;;;;7.29;100.00;103008.13;5100627;27;45226;-74
2023/01/25 01:31:51;;;;;;;;;58.50;46.25;;;;;7.31;100.00;103008.91;5101127;27;45710;-74
2023/01/25 01:34:17;;;;;;;;;56.50;45.75;;;;;7.34;100.00;103008.72;5082425;27;45975;-74
2023/01/25 01:36:43;;;;;;;;;67.50;53.50;;;;;7.30;100.00;103008.03;5100619;27;45864;-74
2023/01/25 01:39:09;;;;;;;;;63.00;49.00;;;;;7.36;100.00;103009.44;5100716;27;45367;-75
2023/01/25 01:41:35;;;;;;;;;61.50;48.25;;;;;7.39;100.00;103008.41;5082101;27;45255;-74
2023/01/25 01:44:01;;;;;;;;;60.25;48.75;;;;;7.40;100.00;103018.03;5082066;27;46308;-74
2023/01/25 01:46:38;;;;;;;;;62.25;48.75;;;;;7.39;100.00;103011.91;5100651;27;46321;-74
2023/01/25 01:49:18;;;;;;;;;64.50;50.25;;;;;7.35;100.00;103017.47;5100834;27;45386;-74
2023/01/25 01:51:43;;;;;;;;;60.00;50.00;;;;;7.29;100.00;103024.88;5100603;27;45405;-74
2023/01/25 01:54:15;;;;;;;;;68.75;51.25;;;;;7.30;100.00;103015.13;5100493;27;45328;-74
2023/01/25 01:56:40;;;;;;;;;66.25;51.50;;;;;7.29;100.00;103016.94;5100047;27;45251;-74
2023/01/25 01:59:08;;;;;;;;;54.00;45.25;;;;;7.30;100.00;103020.41;5100598;27;45292;-74
2023/01/25 02:01:34;;;;;;;;;62.50;51.25;;;;;7.27;100.00;103021.47;5100454;27;45412;-74
2023/01/25 02:04:03;;;;;;;;;66.50;52.25;;;;;7.25;100.00;103017.22;5100107;27;45358;-75
2023/01/25 02:06:38;;;;;;;;;60.50;50.25;;;;;7.23;100.00;103012.00;5081473;27;47484;-74
2023/01/25 02:09:03;;;;;;;;;63.00;49.00;;;;;7.24;100.00;103018.16;5100271;27;45222;-74
2023/01/25 02:11:31;;;;;;;;;64.25;50.50;;;;;7.24;100.00;103015.53;5099867;27;45562;-74
2023/01/25 02:13:58;;;;;;;;;67.00;49.75;;;;;7.29;100.00;103018.72;5100279;27;45673;-74
2023/01/25 02:16:26;;;;;;;;;62.75;49.00;;;;;7.27;100.00;103023.28;5099934;27;46234;-74
2023/01/25 02:18:55;;;;;;;;;66.50;51.75;;;;;7.27;100.00;103024.09;5100262;27;45304;-74
2023/01/25 02:21:22;;;;;;;;;46.00;38.75;;;;;7.28;100.00;103019.66;5100087;27;45223;-74
2023/01/25 02:24:03;;;;;;;;;60.25;48.00;;;;;7.32;100.00;103019.38;5100078;27;45656;-74
2023/01/25 02:26:29;;;;;;;;;58.75;48.75;;;;;7.32;100.00;103022.03;5099883;27;45300;-74
2023/01/25 02:29:03;;;;;;;;;59.00;48.75;;;;;7.26;100.00;103017.13;5081379;27;45252;-74
2023/01/25 02:31:28;;;;;;;;;52.75;43.00;;;;;7.30;100.00;103017.75;5100037;27;45228;-74
2023/01/25 02:33:54;;;;;;;;;62.50;46.50;;;;;7.26;100.00;103021.53;5099845;27;45226;-75
2023/01/25 02:36:30;;;;;;;;;60.50;50.00;;;;;7.27;100.00;103021.47;5099816;27;46242;-74
2023/01/25 02:39:00;;;;;;;;;57.75;47.75;;;;;7.42;100.00;103019.63;5099919;27;45244;-74
2023/01/25 02:41:37;;;;;;;;;66.25;51.00;;;;;7.47;100.00;103013.19;5081464;27;45423;-74
2023/01/25 02:44:07;;;;;;;;;57.50;47.00;;;;;7.43;100.00;103012.56;5099577;27;46055;-74
2023/01/25 02:46:34;;;;;;;;;57.00;46.00;;;;;7.42;100.00;103014.34;5099615;27;47037;-74
2023/01/25 02:49:01;;;;;;;;;56.00;45.00;;;;;7.37;100.00;103021.75;5085405;27;45500;-74
2023/01/25 02:51:29;;;;;;;;;59.75;47.75;;;;;7.16;100.00;103019.47;5081306;27;45389;-74
2023/01/25 02:53:54;;;;;;;;;59.75;46.25;;;;;7.16;100.00;103016.00;5099689;27;45540;-74
2023/01/25 02:56:20;;;;;;;;;62.25;48.75;;;;;7.15;100.00;103011.66;5099420;27;45187;-74
2023/01/25 02:58:45;;;;;;;;;60.50;45.00;;;;;7.20;100.00;103018.34;5099621;27;45417;-74
2023/01/25 03:01:12;;;;;;;;;58.50;46.50;;;;;7.21;100.00;103021.84;5099804;27;45145;-74
2023/01/25 03:03:37;;;;;;;;;59.75;48.25;;;;;7.24;100.00;103013.72;5099334;27;45509;-74
2023/01/25 03:06:03;;;;;;;;;52.00;43.00;;;;;7.21;100.00;103008.59;5098958;27;46353;-74
2023/01/25 03:08:29;;;;;;;;;56.75;46.25;;;;;7.22;100.00;103007.69;5099695;27;45307;-74
2023/01/25 03:11:00;;;;;;;;;58.00;44.75;;;;;7.24;100.00;103016.34;5099370;27;45302;-74
2023/01/25 03:13:25;;;;;;;;;58.25;47.50;;;;;7.30;100.00;103009.81;5099300;27;45575;-74
2023/01/25 03:15:51;;;;;;;;;62.25;47.25;;;;;7.28;100.00;103009.91;5099116;27;45467;-74
2023/01/25 03:18:18;;;;;;;;;57.50;44.25;;;;;7.29;100.00;103009.00;5099506;27;45290;-74
2023/01/25 03:20:43;;;;;;;;;58.50;45.75;;;;;7.29;100.00;103003.69;5099378;27;45467;-74
2023/01/25 03:23:08;;;;;;;;;60.25;47.50;;;;;7.20;100.00;103005.13;5099337;27;45322;-74
2023/01/25 03:25:34;;;;;;;;;55.00;45.50;;;;;7.22;100.00;103001.53;5098923;27;45460;-74
2023/01/25 03:27:59;;;;;;;;;53.75;43.25;;;;;7.23;100.00;103013.81;5080696;27;45792;-74
2023/01/25 03:30:24;;;;;;;;;58.25;46.75;;;;;7.14;100.00;103009.94;5080920;27;45370;-74
2023/01/25 03:32:50;;;;;;;;;58.75;46.25;;;;;7.11;100.00;103007.47;5099640;27;45379;-74
2023/01/25 03:35:15;;;;;;;;;57.25;48.25;;;;;7.14;100.00;103009.94;5102815;27;45975;-74
2023/01/25 03:37:40;;;;;;;;;63.25;48.75;;;;;7.08;100.00;103000.59;5102796;27;45329;-74
2023/01/25 03:40:06;;;;;;;;;55.75;44.50;;;;;7.05;100.00;102998.13;5103131;27;45604;-74
2023/01/25 03:42:32;;;;;;;;;56.75;46.25;;;;;7.00;100.00;103005.53;5102421;27;45945;-74
2023/01/25 03:44:57;;;;;;;;;58.00;46.50;;;;;6.93;100.00;103005.91;5083790;27;46163;-74
2023/01/25 03:47:23;;;;;;;;;62.75;49.25;;;;;6.91;100.00;102999.84;5102600;27;45231;-74
2023/01/25 03:49:48;;;;;;;;;59.50;46.00;;;;;6.87;100.00;103013.34;5102821;27;45829;-74
2023/01/25 03:52:13;;;;;;;;;47.50;41.00;;;;;6.80;100.00;103011.06;5102480;27;45281;-74
2023/01/25 03:54:39;;;;;;;;;62.00;47.00;;;;;6.77;100.00;102997.19;5102323;27;45248;-74
2023/01/25 03:57:04;;;;;;;;;56.25;43.00;;;;;6.82;100.00;103006.53;5102074;27;45265;-74
2023/01/25 03:59:29;;;;;;;;;58.50;45.00;;;;;6.78;100.00;102993.59;5102527;27;45278;-74
2023/01/25 04:01:55;;;;;;;;;56.25;43.25;;;;;6.79;100.00;102995.28;5102185;27;45262;-74
2023/01/25 04:04:20;;;;;;;;;59.50;47.00;;;;;6.76;100.00;102995.50;5101893;27;45200;-74
2023/01/25 04:06:45;;;;;;;;;65.75;50.25;;;;;6.77;100.00;102991.91;5101938;27;45232;-74
2023/01/25 04:09:13;;;;;;;;;51.00;42.50;;;;;6.80;100.00;102997.00;5102628;27;45199;-74
2023/01/25 04:11:39;;;;;;;;;57.00;44.75;;;;;6.82;100.00;102997.75;5101855;27;45335;-74
2023/01/25 04:14:04;;;;;;;;;55.75;44.50;;;;;6.83;100.00;102996.84;5083641;27;47182;-74
2023/01/25 04:16:30;;;;;;;;;59.25;46.75;;;;;6.83;100.00;102991.53;5083544;27;45983;-74
2023/01/25 04:18:55;;;;;;;;;63.00;49.50;;;;;6.86;100.00;102996.66;5102259;27;45433;-74
2023/01/25 04:21:21;;;;;;;;;53.00;43.25;;;;;6.87;100.00;102998.34;5101729;27;45440;-74
2023/01/25 04:23:46;;;;;;;;;57.00;46.00;;;;;6.84;100.00;102990.59;5101903;27;46083;-74
2023/01/25 04:26:13;;;;;;;;;55.00;44.50;;;;;6.84;100.00;102995.00;5101559;27;45334;-74
2023/01/25 04:28:38;;;;;;;;;62.50;49.25;;;;;6.82;100.00;102992.47;5102128;27;45335;-74
2023/01/25 04:31:05;;;;;;;;;60.25;45.00;;;;;6.85;100.00;102988.81;5101681;27;45528;-74
2023/01/25 04:33:31;;;;;;;;;60.25;48.75;;;;;6.83;100.00;102994.19;5101835;27;46065;-74
2023/01/25 04:35:57;;;;;;;;;51.00;42.25;;;;;6.85;100.00;102992.28;5101367;27;45323;-74
2023/01/25 04:38:23;;;;;;;;;56.25;45.50;;;;;6.81;100.00;102986.34;5101963;27;45368;-74
2023/01/25 04:40:50;;;;;;;;;56.75;46.25;;;;;6.84;100.00;102993.22;5101483;27;45481;-74
2023/01/25 04:43:16;;;;;;;;;59.00;43.75;;;;;6.83;100.00;102991.53;5082916;27;48369;-74
2023/01/25 04:45:42;;;;;;;;;60.00;47.50;;;;;6.81;100.00;102994.28;5081692;27;45377;-74
2023/01/25 04:48:09;;;;;;;;;51.50;42.25;;;;;6.87;100.00;102998.34;5101894;27;45283;-75
2023/01/25 04:50:39;;;;;;;;;51.50;38.75;;;;;6.79;100.00;102990.00;5101291;27;45218;-74
2023/01/25 04:53:06;;;;;;;;;54.25;42.75;;;;;6.75;100.00;102984.06;5101532;27;45377;-74
2023/01/25 04:55:33;;;;;;;;;53.75;42.75;;;;;6.77;100.00;102986.63;5082792;27;45355;-74
2023/01/25 04:57:59;;;;;;;;;57.00;44.00;;;;;6.75;100.00;102991.16;5101337;27;45236;-74
2023/01/25 05:00:25;;;;;;;;;52.00;41.75;;;;;6.76;100.00;102995.50;5088101;27;45665;-74
2023/01/25 05:02:50;;;;;;;;;58.00;47.25;;;;;6.70;100.00;102988.78;5101215;27;45330;-75
2023/01/25 05:05:16;;;;;;;;;56.25;45.00;;;;;6.64;100.00;102991.78;5101180;27;45309;-75
2023/01/25 05:07:41;;;;;;;;;40.50;35.75;;;;;6.66;100.00;102990.78;5101046;27;45279;-74
2023/01/25 05:10:08;;;;;;;;;55.75;44.25;;;;;6.66;100.00;102989.91;5101555;27;45286;-74
2023/01/25 05:12:33;;;;;;;;;67.00;51.75;;;;;6.64;100.00;102987.38;5082853;27;47960;-74
2023/01/25 05:14:58;;;;;;;;;48.00;42.00;;;;;6.72;100.00;102989.53;5101194;27;45307;-74
2023/01/25 05:17:24;;;;;;;;;56.00;43.50;;;;;6.66;100.00;102985.50;5101349;27;45467;-75
2023/01/25 05:19:49;;;;;;;;;58.50;45.00;;;;;6.68;100.00;102983.59;5101022;27;45534;-75
2023/01/25 05:22:16;;;;;;;;;49.50;40.75;;;;;6.69;100.00;102987.94;5101224;27;45391;-74
2023/01/25 05:24:44;;;;;;;;;46.00;38.75;;;;;6.78;100.00;102990.97;5082586;27;45449;-74
2023/01/25 05:27:11;;;;;;;;;48.50;37.00;;;;;6.75;100.00;102986.72;5100890;27;45486;-74
2023/01/25 05:29:39;;;;;;;;;52.00;42.75;;;;;6.76;100.00;102985.78;5100687;27;45278;-73
2023/01/25 05:32:07;;;;;;;;;54.00;43.00;;;;;6.69;100.00;102980.03;5082240;27;48403;-74
2023/01/25 05:34:32;;;;;;;;;45.50;40.00;;;;;6.75;100.00;102983.22;5100963;27;45390;-74
2023/01/25 05:36:58;;;;;;;;;40.00;36.75;;;;;6.67;100.00;102978.38;5065484;27;45191;-74
2023/01/25 05:39:24;;;;;;;;;45.25;38.00;;;;;6.66;100.00;102980.22;5101192;27;45200;-74
2023/01/25 05:41:50;;;;;;;;;49.25;43.25;;;;;6.62;100.00;102981.34;5100338;27;45467;-74
2023/01/25 05:44:16;;;;;;;;;54.50;44.00;;;;;6.65;100.00;102975.84;5100724;27;45224;-74
2023/01/25 05:46:41;;;;;;;;;43.25;36.75;;;;;6.67;100.00;102971.31;5100781;27;45481;-74
2023/01/25 05:49:06;;;;;;;;;34.25;31.25;;;;;6.63;100.00;102968.97;5100767;27;45299;-75
2023/01/25 05:51:32;;;;;;;;;44.25;38.75;;;;;6.61;100.00;102974.34;5100312;27;46021;-74
2023/01/25 05:53:57;;;;;;;;;47.50;39.50;;;;;6.60;100.00;102972.63;5100925;27;45647;-74
2023/01/25 05:56:23;;;;;;;;;46.25;37.25;;;;;6.60;100.00;102979.72;5099962;27;45439;-73
2023/01/25 05:58:56;;;;;;;;;39.00;36.25;;;;;6.50;100.00;102972.31;5100554;27;45446;-74
2023/01/25 06:01:22;;;;;;;;;48.00;38.00;;;;;6.50;100.00;102974.13;5100330;27;46368;-75
2023/01/25 06:03:47;;;;;;;;;45.75;36.75;;;;;6.46;100.00;102972.63;5100465;27;45308;-74
2023/01/25 06:06:13;;;;;;;;;37.75;31.50;;;;;6.50;100.00;102974.97;5094895;27;45618;-74
2023/01/25 06:08:38;;;;;;;;;39.00;37.00;;;;;6.46;100.00;102962.91;5091162;27;46151;-75
2023/01/25 06:11:08;;;;;;;;;39.75;36.50;;;;;6.46;100.00;102967.34;5098751;27;45398;-74
2023/01/25 06:13:34;;;;;;;;;39.25;34.00;;;;;6.46;100.00;102972.63;5100556;27;45421;-74
2023/01/25 06:15:59;;;;;;;;;42.25;35.50;;;;;6.43;100.00;102979.78;5082172;27;45189;-74
2023/01/25 06:18:25;;;;;;;;;41.50;35.75;;;;;6.44;100.00;102970.09;5100404;27;45331;-74
2023/01/25 06:20:50;;;;;;;;;36.75;33.75;;;;;6.40;100.00;102972.03;5068279;27;47047;-73
2023/01/25 06:23:16;;;;;;;;;37.75;31.25;;;;;6.40;100.00;102969.41;5081813;27;45428;-73
2023/01/25 06:25:42;;;;;;;;;34.00;28.50;;;;;6.34;100.00;102977.69;5100127;27;45499;-75
2023/01/25 06:28:08;;;;;;;;;33.75;23.50;;;;;6.32;100.00;102974.31;5099659;27;45575;-74
2023/01/25 06:30:33;;;;;;;;;33.25;29.75;;;;;6.30;100.00;102973.53;5099797;27;46578;-74
2023/01/25 06:33:00;;;;;;;;;34.25;31.00;;;;;6.29;100.00;102969.19;5099993;27;45535;-75
2023/01/25 06:35:25;;;;;;;;;32.75;28.25;;;;;6.27;100.00;102964.00;5100072;27;45389;-74
2023/01/25 06:37:50;;;;;;;;;32.50;32.50;;;;;6.32;100.00;102969.03;5095329;27;45500;-76
2023/01/25 06:40:16;;;;;;;;;33.50;30.75;;;;;6.36;100.00;102959.97;5093725;27;47030;-75
2023/01/25 06:42:42;;;;;;;;;35.00;34.25;;;;;6.36;100.00;102959.09;5080533;27;45820;-74
2023/01/25 06:45:08;;;;;;;;;32.00;29.50;;;;;6.35;100.00;102955.63;5095004;27;45296;-75
2023/01/25 06:47:33;;;;;;;;;33.25;28.00;;;;;6.33;100.00;102952.22;5095887;27;45380;-74
2023/01/25 06:49:59;;;;;;;;;32.50;25.00;;;;;6.33;100.00;102970.72;5099584;27;45295;-74
2023/01/25 06:52:24;;;;;;;;;29.25;25.50;;;;;6.30;100.00;102952.41;5099689;27;45161;-75
2023/01/25 06:54:49;;;;;;;;;36.75;33.75;;;;;6.31;100.00;102959.38;5098595;27;45250;-74
2023/01/25 06:57:15;;;;;;;;;32.50;27.25;;;;;6.28;100.00;102963.06;5098050;27;46081;-74
2023/01/25 06:59:40;;;;;;;;;32.00;27.75;;;;;6.28;100.00;102959.56;5099520;27;45941;-75
2023/01/25 07:02:06;;;;;;;;;27.00;22.25;;;;;6.30;100.00;102958.53;5099755;27;45406;-74
2023/01/25 07:04:31;;;;;;;;;34.25;28.00;;;;;6.31;100.00;102964.66;5098525;27;45268;-74
2023/01/25 07:06:57;;;;;;;;;29.00;23.75;;;;;6.25;100.00;102957.97;5081236;27;47035;-76
2023/01/25 07:09:23;;;;;;;;;24.25;22.75;;;;;6.30;100.00;102966.47;5097170;27;47175;-76
2023/01/25 07:11:50;;;;;;;;;33.50;27.00;;;;;6.30;100.00;102962.97;5074861;27;45391;-76
2023/01/25 07:14:15;;;;;;;;;31.25;28.75;;;;;6.27;100.00;102955.22;5084535;27;45477;-76
2023/01/25 07:16:41;;;;;;;;;26.50;24.00;;;;;6.28;100.00;102967.47;5102127;27;45346;-78
2023/01/25 07:19:06;;;;;;;;;22.50;19.00;;;;;6.25;100.00;102965.88;5100723;27;47752;-77
2023/01/25 07:21:32;;;;;;;;;26.75;22.50;;;;;6.24;100.00;102963.31;5103168;27;45248;-76
2023/01/25 07:24:02;;;;;;;;;23.25;21.75;;;;;6.29;100.00;102961.28;5103207;27;45305;-77
2023/01/25 07:26:28;;;;;;;;;18.00;14.75;;;;;6.31;100.00;102959.38;5102650;27;45455;-76
2023/01/25 07:28:56;;;;;;;;;28.67;24.67;;;;;6.28;100.00;102962.19;5101494;27;45793;-78
2023/01/25 07:31:21;;;;;;;;;24.67;22.00;;;;;6.28;100.00;102965.69;5095695;27;45634;-76
2023/01/25 07:33:52;;;;;;;;;28.25;22.00;;;;;6.27;100.00;102953.44;5102731;27;45451;-75
2023/01/25 07:36:18;;;;;;;;;28.50;25.50;;;;;6.28;100.00;102949.84;5084570;27;47397;-76
2023/01/25 07:38:43;;;;;;;;;24.75;24.00;;;;;6.31;100.00;102954.97;5102672;27;45379;-75
2023/01/25 07:41:09;;;;;;;;;25.00;24.00;;;;;6.30;100.00;102947.13;5102326;27;45389;-75
2023/01/25 07:43:35;;;;;;;;;28.25;23.50;;;;;6.33;100.00;102944.31;5084207;27;45348;-75
2023/01/25 07:46:05;;;;;;;;;29.50;25.25;;;;;6.34;100.00;102947.81;5102541;27;45394;-76
2023/01/25 07:48:32;;;;;;;;;26.50;22.25;;;;;6.38;100.00;102944.84;5102581;27;46957;-76
2023/01/25 07:51:11;;;;;;;;;24.75;22.00;;;;;6.41;100.00;102949.13;5102273;27;45362;-76
2023/01/25 07:53:41;;;;;;;;;20.33;20.33;;;;;6.47;100.00;102934.69;5102472;27;45256;-78
2023/01/25 07:56:08;;;;;;;;;27.00;22.75;;;;;6.43;100.00;102944.59;5084076;27;46071;-76
2023/01/25 07:58:34;;;;;;;;;29.25;26.00;;;;;6.44;100.00;102944.50;5102138;27;46361;-78
2023/01/25 08:01:07;;;;;;;;;31.00;28.25;;;;;6.43;100.00;102948.09;5102546;27;45335;-77
2023/01/25 08:03:32;;;;;;;;;28.75;26.00;;;;;6.41;100.00;102942.03;5102327;27;45422;-77
2023/01/25 08:05:58;;;;;;;;;19.33;18.00;;;;;6.44;100.00;102948.94;5101867;27;45508;-77
2023/01/25 08:08:23;;;;;;;;;21.33;17.33;;;;;6.40;100.00;102953.56;5097881;27;45456;-76
2023/01/25 08:10:48;;;;;;;;;14.33;13.00;;;;;6.41;100.00;102951.78;5072213;27;45834;-77
2023/01/25 08:13:14;;;;;;;;;24.50;23.00;;;;;6.40;100.00;102950.06;5100696;27;45469;-77
2023/01/25 08:15:39;;;;;;;;;19.00;17.00;;;;;6.34;100.00;102951.28;5100808;27;47332;-77
2023/01/25 08:18:04;;;;;;;;;22.00;18.67;;;;;6.40;100.00;102950.91;5101555;27;47029;-77
2023/01/25 08:20:30;;;;;;;;;18.67;13.33;;;;;6.35;100.00;102944.22;5101852;27;45683;-75
2023/01/25 08:22:55;;;;;;;;;18.33;16.33;;;;;6.36;100.00;102945.91;5102486;27;45444;-76
2023/01/25 08:25:20;;;;;;;;;26.50;22.00;;;;;6.35;100.00;102938.94;5100982;27;45819;-79
2023/01/25 08:27:45;;;;;;;;;21.75;20.50;;;;;6.26;100.00;102937.69;5083130;27;48023;-77
2023/01/25 08:30:11;;;;;;;;;18.00;18.00;;;;;6.17;100.00;102947.84;5101503;27;45271;-78
2023/01/25 08:32:37;;;;;;;;;16.00;16.00;;;;;6.11;100.00;102947.38;5083899;27;45335;-77
2023/01/25 08:35:03;;;;;;;;;13.00;12.00;;;;;6.13;100.00;102945.47;5101467;27;45300;-76
2023/01/25 08:37:29;;;;;;;;;18.33;16.00;;;;;6.12;100.00;102949.91;5083243;27;46358;-80
2023/01/25 08:39:58;;;;;;;;;18.33;15.00;;;;;6.19;100.00;102955.66;5083496;27;45294;-77
2023/01/25 08:42:24;;;;;;;;;18.33;17.00;;;;;6.19;100.00;102959.16;5099043;27;45423;-76
2023/01/25 08:44:49;;;;;;;;;19.00;14.00;;;;;6.21;100.00;102953.81;5098820;27;45572;-77
2023/01/25 08:47:15;;;;;;;;;19.75;18.50;;;;;6.29;100.00;102954.19;5101701;27;46060;-81
2023/01/25 08:49:40;;;;;;;;;23.00;21.50;;;;;6.25;100.00;102949.16;5101584;27;45429;-82
2023/01/25 08:52:06;;;;;;;;;22.75;20.00;;;;;6.35;100.00;102942.44;5101975;27;45450;-83
2023/01/25 08:54:31;;;;;;;;;22.50;21.00;;;;;6.32;100.00;102939.97;5082935;27;46110;-80
2023/01/25 08:56:56;;;;;;;;;25.50;23.25;;;;;6.28;100.00;102933.16;5101305;27;45410;-81
2023/01/25 08:59:22;;;;;;;;;22.00;18.67;;;;;6.32;100.00;102932.03;5082956;27;45397;-80
2023/01/25 09:01:47;;;;;;;;;17.25;16.50;;;;;6.27;100.00;102931.44;5083871;27;45306;-82
2023/01/25 09:04:12;;;;;;;;;18.33;17.00;;;;;6.28;100.00;102938.44;5100922;27;45307;-79
2023/01/25 09:06:38;;;;;;;;;25.75;21.50;;;;;6.39;100.00;102925.44;5099616;27;46437;-81
2023/01/25 09:09:03;;;;;;;;;28.00;24.75;;;;;6.38;100.00;102936.94;5083088;27;46253;-80
2023/01/25 09:11:29;;;;;;;;;32.75;28.50;;;;;6.38;100.00;102936.94;5082729;27;45648;-81
2023/01/25 09:13:55;;;;;;;;;26.25;25.25;;;;;6.36;100.00;102935.34;5100347;27;45468;-83
2023/01/25 09:16:29;;;;;;;;;22.75;19.00;;;;;6.31;100.00;102933.81;5082680;27;48154;-85
2023/01/25 09:19:00;;;;;;;;;26.00;21.00;;;;;6.25;100.00;102930.69;5093331;27;45560;-81
2023/01/25 09:21:26;;;;;;;;;25.25;23.25;;;;;6.15;100.00;102923.34;5082336;27;45398;-80
2023/01/25 09:23:52;;;;;;;;;24.00;20.00;;;;;6.16;100.00;102926.81;5093181;27;45526;-81
2023/01/25 09:26:18;;;;;;;;;25.00;22.75;;;;;6.13;100.00;102929.63;5101048;27;45364;-80
2023/01/25 09:28:48;;;;;;;;;22.75;17.25;;;;;6.09;100.00;102936.88;5078968;27;45385;-79
2023/01/25 09:31:14;;;;;;;;;22.00;21.25;;;;;6.08;100.00;102918.50;5096047;27;45356;-80
2023/01/25 09:33:40;;;;;;;;;31.50;29.25;;;;;6.06;100.00;102930.00;5081424;27;46428;-80
2023/01/25 09:36:06;;;;;;;;;18.50;18.50;;;;;6.09;100.00;102933.38;5100669;27;45420;-79
2023/01/25 09:38:31;;;;;;;;;26.75;22.50;;;;;6.01;100.00;102920.59;5100728;27;45639;-79
2023/01/25 09:41:13;;;;;;;;;20.00;17.00;;;;;6.04;100.00;102926.59;5100802;27;45295;-79
2023/01/25 09:44:23;;;;;;;;;21.33;18.33;;;;;5.99;100.00;102933.88;5082267;27;46434;-79
2023/01/25 09:47:01;;;;;;;;;20.75;20.75;;;;;6.06;100.00;102929.16;5017403;28;45449;-80
2023/01/25 09:50:09;;;;;;;;;30.00;26.25;;;;;6.00;100.00;102930.34;5017525;28;45324;-79
2023/01/25 09:53:17;;;;;;;;;28.75;23.50;;;;;5.98;100.00;102934.00;5085955;27;45437;-81
2023/01/25 09:55:43;;;;;;;;;20.00;17.00;;;;;5.98;100.00;102929.56;5085376;27;47534;-79
2023/01/25 09:58:18;;;;;;;;;17.50;17.00;;;;;5.89;100.00;102922.16;5099796;27;46421;-79
2023/01/25 10:00:46;;;;;;;;;23.75;21.50;;;;;5.94;100.00;102931.56;5080994;27;45331;-83
2023/01/25 10:03:37;;;;;;;;;20.75;17.00;;;;;5.98;100.00;102934.84;5068552;27;45350;-81
2023/01/25 10:06:03;;;;;;;;;21.00;18.00;;;;;6.02;100.00;102932.88;5092235;27;45498;-79
2023/01/25 10:08:50;;;;;;;;;21.75;18.75;;;;;6.03;100.00;102927.53;5095394;27;46932;-79
2023/01/25 10:11:23;;;;;;;;;24.50;21.00;;;;;6.03;100.00;102931.94;5071475;27;45388;-79
2023/01/25 10:13:49;;;;;;;;;25.00;25.00;;;;;6.01;100.00;102923.25;5099707;27;45292;-80
2023/01/25 10:16:26;;;;;;;;;20.67;19.67;;;;;6.02;100.00;102932.88;5100281;27;45312;-79
2023/01/25 10:19:17;;;;;;;;;24.25;22.00;;;;;5.98;100.00;102931.38;5099965;27;45338;-80
2023/01/25 10:21:47;;;;;;;;;23.00;21.25;;;;;5.90;100.00;102924.72;5081507;27;45315;-80
2023/01/25 10:25:10;;;;;;;;;24.50;19.75;;;;;5.92;100.00;102936.06;5099993;27;45274;-81
2023/01/25 10:27:45;;;;;;;;;22.25;22.25;;;;;5.99;100.00;102936.53;5013451;28;46170;-82
2023/01/25 10:30:40;;;;;;;;;21.00;21.00;;;;;5.94;100.00;102939.47;5058297;27;46351;-79
2023/01/25 10:33:15;;;;;;;;;20.00;18.25;;;;;5.97;100.00;102935.78;5079629;27;45662;-80
2023/01/25 10:35:44;;;;;;;;;20.50;19.50;;;;;6.00;100.00;102930.34;5091600;27;45732;-77
2023/01/25 10:38:29;;;;;;;;;20.25;13.50;;;;;6.04;100.00;102929.25;5080825;27;45512;-78
2023/01/25 10:41:04;;;;;;;;;24.50;22.50;;;;;6.01;100.00;102931.16;5099077;27;45407;-77
2023/01/25 10:43:29;;;;;;;;;31.75;28.00;;;;;5.90;100.00;102923.91;5097224;27;45395;-77
2023/01/25 10:45:54;;;;;;;;;38.25;33.75;;;;;5.88;100.00;102921.34;5098037;27;45476;-78
2023/01/25 10:48:23;;;;;;;;;32.75;30.75;;;;;5.84;100.00;102925.09;5099639;27;45374;-77
2023/01/25 10:50:53;;;;;;;;;40.25;32.50;;;;;5.85;100.00;102920.66;5095529;27;46280;-78
2023/01/25 10:53:27;;;;;;;;;30.00;29.75;;;;;5.85;100.00;102918.88;5088571;27;45420;-77
2023/01/25 10:56:00;;;;;;;;;27.25;26.50;;;;;5.80;100.00;102911.22;5089073;27;45405;-77
2023/01/25 10:58:35;;;;;;;;;26.25;22.50;;;;;5.77;100.00;102916.69;5083076;27;45789;-77
2023/01/25 11:01:03;;;;;;;;;26.75;21.75;;;;;5.74;100.00;102910.72;5081509;27;45473;-78
2023/01/25 11:03:45;;;;;;;;;30.00;27.25;;;;;5.73;100.00;102911.66;5098562;27;45440;-80
2023/01/25 11:06:13;;;;;;;;;31.50;27.00;;;;;5.72;100.00;102907.34;5062839;27;45458;-78
2023/01/25 11:08:43;;;;;;;;;40.00;32.00;;;;;5.70;100.00;102904.78;5091566;27;45575;-78
2023/01/25 11:11:30;;;;;;;;;29.00;23.00;;;;;5.77;100.00;102895.56;5068948;27;47477;-80
2023/01/25 11:13:56;;;;;;;;;29.00;26.75;;;;;5.79;100.00;102896.34;5086949;27;45299;-76